Time;durP1;ratioP1;P1;durP2;ratioP2;P2;SDS_P1;SDS_P2;PMS_P1;PMS_P2;Temp;Humidity;BMP_temperature;BMP_pressure;BME280_temperature;BME280_humidity;BME280_pressure;Samples;Min_cycle;Max_cycle;Signal;HPM_P1;HPM_P2
2022/05/25 00:00:10;;;;;;;;;;;;;;;;;;2569750;23;19943;-82
2022/05/25 00:01:10;;;;;;;;;;;;;;;;;;2569582;23;19966;-82
2022/05/25 00:02:13;;;;;;;;;;;;;;;;;;2587023;23;19903;-82
2022/05/25 00:03:13;;;;;;;;;;;;;;;;;;2569830;23;19964;-81
2022/05/25 00:04:14;;;;;;;;;;;;;;;;;;2573715;23;19965;-82
2022/05/25 00:05:15;;;;;;;;;;;;;;;;;;2582454;23;20315;-82
2022/05/25 00:06:16;;;;;;;;;;;;;;;;;;2569886;23;19994;-82
2022/05/25 00:07:17;;;;;;;;;;;;;;;;;;2569770;23;20308;-82
2022/05/25 00:08:18;;;;;;;;;;;;;;;;;;2570002;23;19990;-82
2022/05/25 00:09:18;;;;;;;;;;;;;;;;;;2573582;23;19908;-81
2022/05/25 00:10:19;;;;;;;;;;;;;;;;;;2581944;23;19982;-82
2022/05/25 00:11:19;;;;;;;;;;;;;;;;;;2581760;23;19903;-82
2022/05/25 00:12:21;;;;;;;;;;;;;;;;;;2569489;23;19942;-82
2022/05/25 00:13:23;;;;;;;;;;;;;;;;;;2574061;23;19911;-82
2022/05/25 00:14:23;;;;;;;;;;;;;;;;;;2574384;23;20007;-83
2022/05/25 00:15:28;;;;;;;;;;;;;;;;;;2569567;23;20311;-82
2022/05/25 00:16:28;;;;;;;;;;;;;;;;;;2574023;23;19911;-82
2022/05/25 00:17:31;;;;;;;;;;;;;;;;;;2569376;23;20439;-82
2022/05/25 00:18:34;;;;;;;;;;;;;;;;;;2573471;23;19942;-82
2022/05/25 00:20:53;;;;;;;;;;;;;;;;;;2574304;23;19912;-82
2022/05/25 00:21:53;;;;;;;;;;;;;;;;;;2569627;23;19994;-83
2022/05/25 00:22:54;;;;;;;;;;;;;;;;;;2556966;23;19999;-82
2022/05/25 00:23:55;;;;;;;;;;;;;;;;;;2557091;23;20371;-83
2022/05/25 00:24:57;;;;;;;;;;;;;;;;;;2557277;23;19904;-83
2022/05/25 00:25:57;;;;;;;;;;;;;;;;;;2573936;23;20299;-82
2022/05/25 00:26:57;;;;;;;;;;;;;;;;;;2569027;23;19907;-83
2022/05/25 00:27:58;;;;;;;;;;;;;;;;;;2573811;23;19934;-83
2022/05/25 00:28:59;;;;;;;;;;;;;;;;;;2582114;23;19987;-83
2022/05/25 00:30:00;;;;;;;;;;;;;;;;;;2569460;23;20275;-83
2022/05/25 00:31:00;;;;;;;;;;;;;;;;;;2573565;23;19903;-82
2022/05/25 00:32:02;;;;;;;;;;;;;;;;;;2569841;23;19919;-82
2022/05/25 00:33:03;;;;;;;;;;;;;;;;;;2557435;23;20326;-83
2022/05/25 00:34:03;;;;;;;;;;;;;;;;;;2573634;23;19908;-83
2022/05/25 00:35:04;;;;;;;;;;;;;;;;;;2569474;23;19904;-83
2022/05/25 00:36:04;;;;;;;;;;;;;;;;;;2569756;23;20323;-83
2022/05/25 00:37:05;;;;;;;;;;;;;;;;;;2582026;23;19903;-83
2022/05/25 00:38:06;;;;;;;;;;;;;;;;;;2586471;23;19950;-83
2022/05/25 00:39:07;;;;;;;;;;;;;;;;;;2574161;23;19969;-83
2022/05/25 00:40:09;;;;;;;;;;;;;;;;;;2574339;23;19991;-82
2022/05/25 00:41:09;;;;;;;;;;;;;;;;;;2569803;23;19938;-83
2022/05/25 00:42:10;;;;;;;;;;;;;;;;;;2570072;23;19903;-83
2022/05/25 00:43:11;;;;;;;;;;;;;;;;;;2582194;23;20022;-82
2022/05/25 00:44:19;;;;;;;;;;;;;;;;;;2586285;23;19977;-83
2022/05/25 00:45:19;;;;;;;;;;;;;;;;;;2574653;23;20314;-83
2022/05/25 00:46:21;;;;;;;;;;;;;;;;;;2574124;23;19935;-83
2022/05/25 00:47:22;;;;;;;;;;;;;;;;;;2569372;23;20254;-83
2022/05/25 00:48:25;;;;;;;;;;;;;;;;;;2573661;23;20314;-82
2022/05/25 00:49:29;;;;;;;;;;;;;;;;;;2574074;23;20288;-83
2022/05/25 00:51:11;;;;;;;;;;;;;;;;;;2569235;23;19975;-82
2022/05/25 00:51:53;;;;;;;;;;;;;;;;;;2569682;23;19979;-81
2022/05/25 00:52:54;;;;;;;;;;;;;;;;;;2573948;23;19965;-82
2022/05/25 00:54:15;;;;;;;;;;;;;;;;;;2569496;23;19916;-82
2022/05/25 00:55:26;;;;;;;;;;;;;;;;;;2573441;23;20287;-82
2022/05/25 00:56:29;;;;;;;;;;;;;;;;;;2584635;23;19903;-82
2022/05/25 00:57:32;;;;;;;;;;;;;;;;;;2569231;23;19910;-82
2022/05/25 00:58:33;;;;;;;;;;;;;;;;;;2574000;23;19927;-82
2022/05/25 00:59:37;;;;;;;;;;;;;;;;;;2574166;23;19943;-81
2022/05/25 01:00:37;;;;;;;;;;;;;;;;;;2569214;23;19911;-82
2022/05/25 01:01:38;;;;;;;;;;;;;;;;;;2569514;23;19930;-83
2022/05/25 01:02:49;;;;;;;;;;;;;;;;;;2569885;23;19951;-81
2022/05/25 01:03:49;;;;;;;;;;;;;;;;;;2574022;23;19915;-83
2022/05/25 01:04:52;;;;;;;;;;;;;;;;;;2569375;23;19982;-81
2022/05/25 01:05:55;;;;;;;;;;;;;;;;;;2573938;23;19935;-82
2022/05/25 01:06:58;;;;;;;;;;;;;;;;;;2569422;23;20342;-81
2022/05/25 01:08:10;;;;;;;;;;;;;;;;;;2557498;23;20231;-82
2022/05/25 01:09:31;;;;;;;;;;;;;;;;;;2558973;23;20042;-83
2022/05/25 01:10:47;;;;;;;;;;;;;;;;;;2561171;23;19939;-82
2022/05/25 01:12:05;;;;;;;;;;;;;;;;;;2573537;23;19982;-82
2022/05/25 01:13:12;;;;;;;;;;;;;;;;;;2574123;23;19965;-82
2022/05/25 01:14:19;;;;;;;;;;;;;;;;;;2569288;23;19938;-82
2022/05/25 01:15:38;;;;;;;;;;;;;;;;;;2573653;23;19946;-82
2022/05/25 01:16:38;;;;;;;;;;;;;;;;;;2569244;23;19908;-82
2022/05/25 01:17:44;;;;;;;;;;;;;;;;;;2573657;23;19904;-82
2022/05/25 01:18:45;;;;;;;;;;;;;;;;;;2574208;23;19908;-82
2022/05/25 01:19:48;;;;;;;;;;;;;;;;;;2569237;23;19914;-81
2022/05/25 01:20:53;;;;;;;;;;;;;;;;;;2573642;23;19907;-82
2022/05/25 01:22:00;;;;;;;;;;;;;;;;;;2570045;23;19907;-82
2022/05/25 01:23:19;;;;;;;;;;;;;;;;;;2574236;23;19918;-81
2022/05/25 01:24:22;;;;;;;;;;;;;;;;;;2573937;23;19942;-82
2022/05/25 01:25:40;;;;;;;;;;;;;;;;;;2574290;23;19908;-82
2022/05/25 01:26:52;;;;;;;;;;;;;;;;;;2569398;23;19982;-82
2022/05/25 01:27:54;;;;;;;;;;;;;;;;;;2575748;23;19956;-82
2022/05/25 01:29:12;;;;;;;;;;;;;;;;;;2569368;23;19904;-82
2022/05/25 01:30:17;;;;;;;;;;;;;;;;;;2577449;23;20231;-82
2022/05/25 01:31:25;;;;;;;;;;;;;;;;;;2586896;23;19907;-82
2022/05/25 01:32:28;;;;;;;;;;;;;;;;;;2569366;23;19908;-82
2022/05/25 01:33:42;;;;;;;;;;;;;;;;;;2574118;23;19947;-82
2022/05/25 01:34:47;;;;;;;;;;;;;;;;;;2586624;23;20330;-82
2022/05/25 01:35:59;;;;;;;;;;;;;;;;;;2586827;23;19903;-81
2022/05/25 01:37:18;;;;;;;;;;;;;;;;;;2569447;23;20184;-83
2022/05/25 01:38:41;;;;;;;;;;;;;;;;;;2577522;23;20338;-82
2022/05/25 01:39:47;;;;;;;;;;;;;;;;;;2587557;23;19914;-82
2022/05/25 01:40:56;;;;;;;;;;;;;;;;;;2587259;23;19910;-82
2022/05/25 01:42:01;;;;;;;;;;;;;;;;;;2570078;23;20300;-82
2022/05/25 01:43:05;;;;;;;;;;;;;;;;;;2575210;23;19920;-81
2022/05/25 01:44:26;;;;;;;;;;;;;;;;;;2587630;23;20222;-82
2022/05/25 01:45:29;;;;;;;;;;;;;;;;;;2587594;23;19915;-82
2022/05/25 01:46:37;;;;;;;;;;;;;;;;;;2583421;23;19907;-82
2022/05/25 01:47:38;;;;;;;;;;;;;;;;;;2587475;23;20274;-81
2022/05/25 01:48:40;;;;;;;;;;;;;;;;;;2587770;23;19990;-83
2022/05/25 01:49:40;;;;;;;;;;;;;;;;;;2570163;23;19907;-81
2022/05/25 01:51:00;;;;;;;;;;;;;;;;;;2574156;23;19927;-83
2022/05/25 01:52:03;;;;;;;;;;;;;;;;;;2582279;23;20291;-83
2022/05/25 01:53:08;;;;;;;;;;;;;;;;;;2587553;23;20334;-81
2022/05/25 01:54:10;;;;;;;;;;;;;;;;;;2587680;23;20303;-82
2022/05/25 01:55:15;;;;;;;;;;;;;;;;;;2587438;23;20326;-81
2022/05/25 01:56:17;;;;;;;;;;;;;;;;;;2587638;23;19904;-83
2022/05/25 01:57:21;;;;;;;;;;;;;;;;;;2582428;23;19918;-80
2022/05/25 01:58:23;;;;;;;;;;;;;;;;;;2582621;23;19908;-83
2022/05/25 01:59:23;;;;;;;;;;;;;;;;;;2570023;23;19966;-80
2022/05/25 02:00:32;;;;;;;;;;;;;;;;;;2570134;23;19904;-81
2022/05/25 02:01:32;;;;;;;;;;;;;;;;;;2587220;23;19990;-82
2022/05/25 02:05:12;;;;;;;;;;;;;;;;;;2587537;23;19903;-83
2022/05/25 02:06:15;;;;;;;;;;;;;;;;;;2570313;23;19936;-82
2022/05/25 02:07:25;;;;;;;;;;;;;;;;;;2558241;23;19964;-83
2022/05/25 02:08:40;;;;;;;;;;;;;;;;;;2576694;23;19990;-80
2022/05/25 02:10:01;;;;;;;;;;;;;;;;;;2570536;23;20003;-80
2022/05/25 02:11:10;;;;;;;;;;;;;;;;;;2565387;23;19896;-82
2022/05/25 02:12:10;;;;;;;;;;;;;;;;;;2583119;23;19908;-80
2022/05/25 02:13:13;;;;;;;;;;;;;;;;;;2570544;23;20054;-82
2022/05/25 02:14:20;;;;;;;;;;;;;;;;;;2575420;23;19904;-82
2022/05/25 02:15:23;;;;;;;;;;;;;;;;;;2584355;23;19911;-83
2022/05/25 02:16:42;;;;;;;;;;;;;;;;;;2582572;23;19903;-82
2022/05/25 02:18:01;;;;;;;;;;;;;;;;;;2586901;23;19907;-82
2022/05/25 02:19:02;;;;;;;;;;;;;;;;;;2587302;23;20379;-82
2022/05/25 02:20:07;;;;;;;;;;;;;;;;;;2587916;23;20330;-81
2022/05/25 02:21:26;;;;;;;;;;;;;;;;;;2571732;23;19931;-82
2022/05/25 02:22:47;;;;;;;;;;;;;;;;;;2561640;23;19952;-81
2022/05/25 02:23:53;;;;;;;;;;;;;;;;;;2579223;23;19914;-82
2022/05/25 02:25:01;;;;;;;;;;;;;;;;;;2587759;23;19904;-81
2022/05/25 02:26:12;;;;;;;;;;;;;;;;;;2587901;23;19958;-81
2022/05/25 02:27:14;;;;;;;;;;;;;;;;;;2569717;23;20235;-81
2022/05/25 02:28:34;;;;;;;;;;;;;;;;;;2570225;23;20291;-81
2022/05/25 02:29:36;;;;;;;;;;;;;;;;;;2581941;23;19918;-81
2022/05/25 02:30:40;;;;;;;;;;;;;;;;;;2569805;23;19904;-81
2022/05/25 02:31:44;;;;;;;;;;;;;;;;;;2574613;23;19923;-81
2022/05/25 02:32:48;;;;;;;;;;;;;;;;;;2586999;23;19993;-81
2022/05/25 02:33:50;;;;;;;;;;;;;;;;;;2583001;23;20287;-80
2022/05/25 02:34:51;;;;;;;;;;;;;;;;;;2569787;23;19904;-80
2022/05/25 02:35:52;;;;;;;;;;;;;;;;;;2574320;23;19904;-81
2022/05/25 02:36:53;;;;;;;;;;;;;;;;;;2569872;23;20234;-81
2022/05/25 02:37:57;;;;;;;;;;;;;;;;;;2574186;23;20354;-81
2022/05/25 02:38:58;;;;;;;;;;;;;;;;;;2570162;23;19911;-81
2022/05/25 02:39:59;;;;;;;;;;;;;;;;;;2570251;23;19907;-81
2022/05/25 02:41:07;;;;;;;;;;;;;;;;;;2570048;23;19994;-81
2022/05/25 02:42:13;;;;;;;;;;;;;;;;;;2575949;23;20391;-81
2022/05/25 02:43:13;;;;;;;;;;;;;;;;;;2570185;23;20465;-81
2022/05/25 02:44:14;;;;;;;;;;;;;;;;;;2570062;23;19918;-81
2022/05/25 02:45:14;;;;;;;;;;;;;;;;;;2587031;23;19934;-82
2022/05/25 02:46:15;;;;;;;;;;;;;;;;;;2587461;23;19971;-81
2022/05/25 02:47:15;;;;;;;;;;;;;;;;;;2587368;23;19911;-81
2022/05/25 02:48:15;;;;;;;;;;;;;;;;;;2587564;23;19910;-81
2022/05/25 02:49:16;;;;;;;;;;;;;;;;;;2587221;23;19907;-81
2022/05/25 02:50:17;;;;;;;;;;;;;;;;;;2569906;23;20250;-80
2022/05/25 02:51:22;;;;;;;;;;;;;;;;;;2574212;23;19939;-80
2022/05/25 02:52:22;;;;;;;;;;;;;;;;;;2569985;23;19979;-81
2022/05/25 02:53:23;;;;;;;;;;;;;;;;;;2574464;23;19912;-80
2022/05/25 02:54:23;;;;;;;;;;;;;;;;;;2587458;23;19907;-80
2022/05/25 02:55:24;;;;;;;;;;;;;;;;;;2587325;23;19949;-80
2022/05/25 02:56:24;;;;;;;;;;;;;;;;;;2587669;23;19904;-80
2022/05/25 02:57:24;;;;;;;;;;;;;;;;;;2587491;23;19903;-82
2022/05/25 02:58:25;;;;;;;;;;;;;;;;;;2587633;23;20017;-81
2022/05/25 02:59:25;;;;;;;;;;;;;;;;;;2569993;23;19935;-80
2022/05/25 03:00:26;;;;;;;;;;;;;;;;;;2574415;23;19914;-80
2022/05/25 03:01:26;;;;;;;;;;;;;;;;;;2587760;23;19903;-81
2022/05/25 03:02:27;;;;;;;;;;;;;;;;;;2570248;23;20334;-80
2022/05/25 03:03:29;;;;;;;;;;;;;;;;;;2570042;23;19903;-80
2022/05/25 03:04:29;;;;;;;;;;;;;;;;;;2587024;23;20358;-81
2022/05/25 03:05:29;;;;;;;;;;;;;;;;;;2587677;23;19903;-80
2022/05/25 03:06:29;;;;;;;;;;;;;;;;;;2587518;23;19903;-81
2022/05/25 03:07:30;;;;;;;;;;;;;;;;;;2587576;23;20317;-80
2022/05/25 03:08:30;;;;;;;;;;;;;;;;;;2570037;23;19934;-80
2022/05/25 03:09:31;;;;;;;;;;;;;;;;;;2574630;23;19927;-80
2022/05/25 03:10:31;;;;;;;;;;;;;;;;;;2570281;23;19939;-80
2022/05/25 03:11:31;;;;;;;;;;;;;;;;;;2574275;23;20227;-80
2022/05/25 03:12:32;;;;;;;;;;;;;;;;;;2587345;23;19903;-80
2022/05/25 03:13:35;;;;;;;;;;;;;;;;;;2583597;23;20366;-80
2022/05/25 03:14:37;;;;;;;;;;;;;;;;;;2587733;23;19958;-81
2022/05/25 03:15:38;;;;;;;;;;;;;;;;;;2587751;23;19907;-80
2022/05/25 03:16:38;;;;;;;;;;;;;;;;;;2587680;23;20311;-80
2022/05/25 03:17:40;;;;;;;;;;;;;;;;;;2587629;23;19904;-80
2022/05/25 03:18:40;;;;;;;;;;;;;;;;;;2583603;23;20389;-81
2022/05/25 03:19:49;;;;;;;;;;;;;;;;;;2587308;23;19903;-80
2022/05/25 03:20:50;;;;;;;;;;;;;;;;;;2569718;23;20283;-80
2022/05/25 03:21:50;;;;;;;;;;;;;;;;;;2574283;23;19907;-80
2022/05/25 03:22:50;;;;;;;;;;;;;;;;;;2569960;23;19964;-80
2022/05/25 03:23:51;;;;;;;;;;;;;;;;;;2574335;23;20394;-80
2022/05/25 03:24:51;;;;;;;;;;;;;;;;;;2570122;23;19982;-81
2022/05/25 03:25:51;;;;;;;;;;;;;;;;;;2557876;23;19935;-81
2022/05/25 03:26:52;;;;;;;;;;;;;;;;;;2574356;23;20323;-81
2022/05/25 03:27:52;;;;;;;;;;;;;;;;;;2586971;23;19923;-81
2022/05/25 03:28:52;;;;;;;;;;;;;;;;;;2569784;23;20315;-81
2022/05/25 03:29:55;;;;;;;;;;;;;;;;;;2572809;23;19904;-81
2022/05/25 03:30:58;;;;;;;;;;;;;;;;;;2586972;23;20377;-81
2022/05/25 03:31:59;;;;;;;;;;;;;;;;;;2587289;23;19919;-81
2022/05/25 03:32:59;;;;;;;;;;;;;;;;;;2587596;23;19903;-82
2022/05/25 03:33:59;;;;;;;;;;;;;;;;;;2587124;23;20281;-83
2022/05/25 03:35:00;;;;;;;;;;;;;;;;;;2587316;23;20242;-82
2022/05/25 03:36:00;;;;;;;;;;;;;;;;;;2587236;23;19903;-82
2022/05/25 03:37:01;;;;;;;;;;;;;;;;;;2569764;23;20295;-82
2022/05/25 03:38:04;;;;;;;;;;;;;;;;;;2574031;23;19938;-81
2022/05/25 03:39:04;;;;;;;;;;;;;;;;;;2569948;23;20282;-81
2022/05/25 03:40:06;;;;;;;;;;;;;;;;;;2574261;23;19904;-81
2022/05/25 03:41:06;;;;;;;;;;;;;;;;;;2587030;23;19903;-81
2022/05/25 03:42:07;;;;;;;;;;;;;;;;;;2587152;23;19950;-81
2022/05/25 03:43:09;;;;;;;;;;;;;;;;;;2587169;23;19943;-81
2022/05/25 03:44:10;;;;;;;;;;;;;;;;;;2587018;23;19903;-81
2022/05/25 03:45:11;;;;;;;;;;;;;;;;;;2587154;23;19903;-81
2022/05/25 03:46:12;;;;;;;;;;;;;;;;;;2570249;23;20224;-80
2022/05/25 03:47:12;;;;;;;;;;;;;;;;;;2574025;23;19919;-81
2022/05/25 03:48:13;;;;;;;;;;;;;;;;;;2587450;23;19903;-80
2022/05/25 03:49:13;;;;;;;;;;;;;;;;;;2587413;23;19942;-80
2022/05/25 03:50:14;;;;;;;;;;;;;;;;;;2587444;23;20314;-80
2022/05/25 03:51:14;;;;;;;;;;;;;;;;;;2587524;23;19907;-80
2022/05/25 03:52:19;;;;;;;;;;;;;;;;;;2587593;23;19911;-80
2022/05/25 03:53:19;;;;;;;;;;;;;;;;;;2587609;23;19935;-80
2022/05/25 03:54:19;;;;;;;;;;;;;;;;;;2587524;23;20207;-80
2022/05/25 03:55:20;;;;;;;;;;;;;;;;;;2570025;23;19908;-81
2022/05/25 03:56:20;;;;;;;;;;;;;;;;;;2570137;23;20318;-82
2022/05/25 03:57:20;;;;;;;;;;;;;;;;;;2582629;23;19904;-80
2022/05/25 03:58:21;;;;;;;;;;;;;;;;;;2587111;23;19903;-81
2022/05/25 03:59:21;;;;;;;;;;;;;;;;;;2582623;23;19953;-81
2022/05/25 04:00:21;;;;;;;;;;;;;;;;;;2586974;23;19982;-81
2022/05/25 04:01:22;;;;;;;;;;;;;;;;;;2569645;23;19903;-81
2022/05/25 04:02:22;;;;;;;;;;;;;;;;;;2574326;23;19904;-80
2022/05/25 04:03:22;;;;;;;;;;;;;;;;;;2587351;23;19907;-80
2022/05/25 04:04:23;;;;;;;;;;;;;;;;;;2587360;23;19904;-80
2022/05/25 04:05:23;;;;;;;;;;;;;;;;;;2587319;23;19965;-81
2022/05/25 04:06:23;;;;;;;;;;;;;;;;;;2587530;23;19918;-81
2022/05/25 04:07:26;;;;;;;;;;;;;;;;;;2587459;23;20317;-80
2022/05/25 04:08:26;;;;;;;;;;;;;;;;;;2587416;23;19903;-81
2022/05/25 04:09:26;;;;;;;;;;;;;;;;;;2587451;23;20204;-80
2022/05/25 04:10:27;;;;;;;;;;;;;;;;;;2587298;23;19903;-80
2022/05/25 04:11:27;;;;;;;;;;;;;;;;;;2587595;23;20378;-80
2022/05/25 04:12:27;;;;;;;;;;;;;;;;;;2570220;23;19995;-80
2022/05/25 04:13:27;;;;;;;;;;;;;;;;;;2574395;23;19946;-80
2022/05/25 04:14:28;;;;;;;;;;;;;;;;;;2582853;23;20028;-80
2022/05/25 04:15:29;;;;;;;;;;;;;;;;;;2586783;23;20349;-80
2022/05/25 04:16:31;;;;;;;;;;;;;;;;;;2587025;23;19961;-79
2022/05/25 04:17:32;;;;;;;;;;;;;;;;;;2587161;23;19908;-79
2022/05/25 04:18:32;;;;;;;;;;;;;;;;;;2586898;23;19913;-80
2022/05/25 04:19:38;;;;;;;;;;;;;;;;;;2587011;23;19934;-81
2022/05/25 04:20:39;;;;;;;;;;;;;;;;;;2587040;23;19907;-80
2022/05/25 04:21:39;;;;;;;;;;;;;;;;;;2586909;23;19914;-80
2022/05/25 04:22:40;;;;;;;;;;;;;;;;;;2587112;23;19914;-79
2022/05/25 04:23:40;;;;;;;;;;;;;;;;;;2582645;23;20289;-80
2022/05/25 04:24:51;;;;;;;;;;;;;;;;;;2586093;23;20238;-80
2022/05/25 04:25:54;;;;;;;;;;;;;;;;;;2587444;23;19907;-80
2022/05/25 04:26:54;;;;;;;;;;;;;;;;;;2587318;23;19918;-80
2022/05/25 04:27:55;;;;;;;;;;;;;;;;;;2587571;23;20366;-80
2022/05/25 04:28:56;;;;;;;;;;;;;;;;;;2587265;23;19903;-79
2022/05/25 04:29:57;;;;;;;;;;;;;;;;;;2587470;23;19946;-79
2022/05/25 04:30:57;;;;;;;;;;;;;;;;;;2587262;23;19904;-80
2022/05/25 04:31:57;;;;;;;;;;;;;;;;;;2587442;23;19911;-79
2022/05/25 04:32:58;;;;;;;;;;;;;;;;;;2587346;23;19907;-79
2022/05/25 04:33:58;;;;;;;;;;;;;;;;;;2582480;23;19907;-80
2022/05/25 04:34:58;;;;;;;;;;;;;;;;;;2586830;23;19910;-80
2022/05/25 04:35:59;;;;;;;;;;;;;;;;;;2587499;23;19926;-79
2022/05/25 04:37:48;;;;;;;;;;;;;;;;;;2587326;23;19964;-79
2022/05/25 04:38:19;;;;;;;;;;;;;;;;;;2582924;23;19914;-79
2022/05/25 04:39:19;;;;;;;;;;;;;;;;;;2587597;23;20102;-79
2022/05/25 04:40:20;;;;;;;;;;;;;;;;;;2587124;23;19987;-79
2022/05/25 04:41:21;;;;;;;;;;;;;;;;;;2587001;23;20471;-80
2022/05/25 04:42:21;;;;;;;;;;;;;;;;;;2586808;23;19903;-78
2022/05/25 04:43:22;;;;;;;;;;;;;;;;;;2569793;23;19904;-80
2022/05/25 04:44:22;;;;;;;;;;;;;;;;;;2574032;23;19904;-79
2022/05/25 04:45:25;;;;;;;;;;;;;;;;;;2587161;23;19904;-78
2022/05/25 04:46:26;;;;;;;;;;;;;;;;;;2583138;23;19919;-79
2022/05/25 04:47:27;;;;;;;;;;;;;;;;;;2587211;23;19914;-79
2022/05/25 04:48:27;;;;;;;;;;;;;;;;;;2587325;23;19903;-79
2022/05/25 04:49:28;;;;;;;;;;;;;;;;;;2587412;23;20230;-79
2022/05/25 04:50:33;;;;;;;;;;;;;;;;;;2582387;23;19918;-78
2022/05/25 04:51:34;;;;;;;;;;;;;;;;;;2586497;23;19904;-78
2022/05/25 04:52:34;;;;;;;;;;;;;;;;;;2582897;23;19903;-78
2022/05/25 04:53:35;;;;;;;;;;;;;;;;;;2586944;23;19942;-78
2022/05/25 04:54:35;;;;;;;;;;;;;;;;;;2583106;23;19914;-79
2022/05/25 04:58:39;;;;;;;;;;;;;;;;;;2586947;23;19903;-79
2022/05/25 04:59:40;;;;;;;;;;;;;;;;;;2575685;23;19998;-80
2022/05/25 05:00:40;;;;;;;;;;;;;;;;;;2586839;23;19903;-78
2022/05/25 05:01:40;;;;;;;;;;;;;;;;;;2586972;23;19907;-78
2022/05/25 05:02:40;;;;;;;;;;;;;;;;;;2587022;23;19903;-78
2022/05/25 05:03:41;;;;;;;;;;;;;;;;;;2586855;23;20307;-78
2022/05/25 05:04:42;;;;;;;;;;;;;;;;;;2583043;23;19910;-78
2022/05/25 05:05:42;;;;;;;;;;;;;;;;;;2586926;23;19911;-78
2022/05/25 05:06:44;;;;;;;;;;;;;;;;;;2586989;23;19904;-78
2022/05/25 05:07:45;;;;;;;;;;;;;;;;;;2582913;23;19935;-79
2022/05/25 05:08:45;;;;;;;;;;;;;;;;;;2586836;23;20238;-78
2022/05/25 05:09:46;;;;;;;;;;;;;;;;;;2586575;23;19907;-78
2022/05/25 05:10:48;;;;;;;;;;;;;;;;;;2586650;23;20321;-78
2022/05/25 05:11:49;;;;;;;;;;;;;;;;;;2587107;23;19908;-79
2022/05/25 05:12:49;;;;;;;;;;;;;;;;;;2587163;23;20196;-78
2022/05/25 05:13:49;;;;;;;;;;;;;;;;;;2570477;23;19904;-78
2022/05/25 05:14:50;;;;;;;;;;;;;;;;;;2558223;23;19967;-78
2022/05/25 05:15:51;;;;;;;;;;;;;;;;;;2574857;23;19982;-79
2022/05/25 05:17:01;;;;;;;;;;;;;;;;;;2582898;23;20180;-78
2022/05/25 05:18:02;;;;;;;;;;;;;;;;;;2585127;23;20031;-78
2022/05/25 05:19:02;;;;;;;;;;;;;;;;;;2570264;23;19918;-77
2022/05/25 05:20:06;;;;;;;;;;;;;;;;;;2574789;23;19982;-78
2022/05/25 05:21:07;;;;;;;;;;;;;;;;;;2570740;23;19904;-78
2022/05/25 05:22:08;;;;;;;;;;;;;;;;;;2570906;23;20168;-78
2022/05/25 05:23:08;;;;;;;;;;;;;;;;;;2587832;23;19986;-78
2022/05/25 05:24:08;;;;;;;;;;;;;;;;;;2588159;23;20286;-78
2022/05/25 05:25:08;;;;;;;;;;;;;;;;;;2583915;23;19904;-78
2022/05/25 05:26:09;;;;;;;;;;;;;;;;;;2588006;23;20238;-79
2022/05/25 05:27:10;;;;;;;;;;;;;;;;;;2587696;23;20239;-78
2022/05/25 05:28:12;;;;;;;;;;;;;;;;;;2570415;23;19910;-78
2022/05/25 05:29:12;;;;;;;;;;;;;;;;;;2574863;23;19904;-78
2022/05/25 05:30:15;;;;;;;;;;;;;;;;;;2588040;23;19903;-78
2022/05/25 05:31:15;;;;;;;;;;;;;;;;;;2587480;23;19977;-78
2022/05/25 05:32:15;;;;;;;;;;;;;;;;;;2587987;23;20373;-78
2022/05/25 05:33:16;;;;;;;;;;;;;;;;;;2588001;23;20097;-78
2022/05/25 05:34:16;;;;;;;;;;;;;;;;;;2582977;23;20204;-78
2022/05/25 05:35:17;;;;;;;;;;;;;;;;;;2587254;23;20082;-78
2022/05/25 05:36:20;;;;;;;;;;;;;;;;;;2588349;23;19964;-78
2022/05/25 05:37:24;;;;;;;;;;;;;;;;;;2588084;23;19982;-78
2022/05/25 05:38:25;;;;;;;;;;;;;;;;;;2588102;23;19903;-78
2022/05/25 05:39:28;;;;;;;;;;;;;;;;;;2588136;23;19994;-78
2022/05/25 05:40:29;;;;;;;;;;;;;;;;;;2587991;23;19918;-78
2022/05/25 05:41:32;;;;;;;;;;;;;;;;;;2570930;23;19904;-78
2022/05/25 05:42:33;;;;;;;;;;;;;;;;;;2575355;23;19903;-78
2022/05/25 05:43:33;;;;;;;;;;;;;;;;;;2588114;23;19903;-79
2022/05/25 05:44:36;;;;;;;;;;;;;;;;;;2588057;23;19907;-79
2022/05/25 05:45:38;;;;;;;;;;;;;;;;;;2588090;23;19903;-79
2022/05/25 05:46:41;;;;;;;;;;;;;;;;;;2583233;23;20377;-78
2022/05/25 05:47:53;;;;;;;;;;;;;;;;;;2587742;23;19937;-78
2022/05/25 05:48:53;;;;;;;;;;;;;;;;;;2588063;23;19907;-78
2022/05/25 05:49:54;;;;;;;;;;;;;;;;;;2588020;23;19918;-79
2022/05/25 05:50:55;;;;;;;;;;;;;;;;;;2587905;23;19922;-79
2022/05/25 05:51:55;;;;;;;;;;;;;;;;;;2588058;23;19911;-79
2022/05/25 05:52:56;;;;;;;;;;;;;;;;;;2587948;23;19935;-79
2022/05/25 05:53:59;;;;;;;;;;;;;;;;;;2583233;23;19903;-79
2022/05/25 05:54:59;;;;;;;;;;;;;;;;;;2587623;23;19942;-79
2022/05/25 05:56:00;;;;;;;;;;;;;;;;;;2584016;23;19927;-79
2022/05/25 05:57:00;;;;;;;;;;;;;;;;;;2588002;23;19903;-79
2022/05/25 05:58:01;;;;;;;;;;;;;;;;;;2588091;23;19904;-79
2022/05/25 05:59:04;;;;;;;;;;;;;;;;;;2570725;23;20228;-79
2022/05/25 06:00:06;;;;;;;;;;;;;;;;;;2575396;23;19978;-78
2022/05/25 06:01:06;;;;;;;;;;;;;;;;;;2587915;23;20259;-79
2022/05/25 06:02:09;;;;;;;;;;;;;;;;;;2587999;23;19973;-79
2022/05/25 06:03:10;;;;;;;;;;;;;;;;;;2570707;23;19978;-79
2022/05/25 06:04:10;;;;;;;;;;;;;;;;;;2571084;23;19904;-79
2022/05/25 06:05:11;;;;;;;;;;;;;;;;;;2587933;23;20282;-79
2022/05/25 06:06:11;;;;;;;;;;;;;;;;;;2588012;23;19950;-79
2022/05/25 06:07:11;;;;;;;;;;;;;;;;;;2587910;23;19904;-79
2022/05/25 06:08:14;;;;;;;;;;;;;;;;;;2587932;23;19929;-79
2022/05/25 06:09:15;;;;;;;;;;;;;;;;;;2587926;23;19963;-79
2022/05/25 06:10:15;;;;;;;;;;;;;;;;;;2587895;23;20046;-79
2022/05/25 06:11:16;;;;;;;;;;;;;;;;;;2587963;23;20225;-79
2022/05/25 06:12:17;;;;;;;;;;;;;;;;;;2570679;23;20325;-79
2022/05/25 06:13:17;;;;;;;;;;;;;;;;;;2571868;23;19914;-79
2022/05/25 06:14:17;;;;;;;;;;;;;;;;;;2587746;23;19982;-80
2022/05/25 06:19:27;;;;;;;;;;;;;;;;;;2587865;23;20343;-79
2022/05/25 06:20:27;;;;;;;;;;;;;;;;;;2570621;23;19942;-80
2022/05/25 06:21:28;;;;;;;;;;;;;;;;;;2574785;23;19927;-80
2022/05/25 06:22:31;;;;;;;;;;;;;;;;;;2583017;23;20361;-80
2022/05/25 06:23:34;;;;;;;;;;;;;;;;;;2587375;23;20366;-80
2022/05/25 06:24:37;;;;;;;;;;;;;;;;;;2570063;23;19951;-80
2022/05/25 06:25:37;;;;;;;;;;;;;;;;;;2570901;23;19903;-80
2022/05/25 06:26:37;;;;;;;;;;;;;;;;;;2587339;23;19918;-81
2022/05/25 06:27:38;;;;;;;;;;;;;;;;;;2584108;23;20421;-81
2022/05/25 06:28:38;;;;;;;;;;;;;;;;;;2587943;23;20215;-81
2022/05/25 06:29:40;;;;;;;;;;;;;;;;;;2587826;23;19915;-82
2022/05/25 06:30:40;;;;;;;;;;;;;;;;;;2587786;23;20230;-82
2022/05/25 06:31:40;;;;;;;;;;;;;;;;;;2583028;23;19939;-82
2022/05/25 06:32:41;;;;;;;;;;;;;;;;;;2587515;23;20005;-82
2022/05/25 06:33:43;;;;;;;;;;;;;;;;;;2583042;23;19911;-81
2022/05/25 06:34:47;;;;;;;;;;;;;;;;;;2570450;23;19908;-81
2022/05/25 06:35:48;;;;;;;;;;;;;;;;;;2571732;23;19942;-96
2022/05/25 06:36:48;;;;;;;;;;;;;;;;;;2587939;23;20289;-85
2022/05/25 06:37:49;;;;;;;;;;;;;;;;;;2587836;23;20037;-84
2022/05/25 06:38:49;;;;;;;;;;;;;;;;;;2587770;23;19910;-85
2022/05/25 06:39:50;;;;;;;;;;;;;;;;;;2588006;23;20298;-83
2022/05/25 06:40:50;;;;;;;;;;;;;;;;;;2587581;23;19937;-81
2022/05/25 06:41:53;;;;;;;;;;;;;;;;;;2587830;23;19907;-82
2022/05/25 06:42:54;;;;;;;;;;;;;;;;;;2587813;23;20312;-84
2022/05/25 06:43:54;;;;;;;;;;;;;;;;;;2587853;23;19927;-87
2022/05/25 06:44:55;;;;;;;;;;;;;;;;;;2588132;23;20289;-95
2022/05/25 06:45:55;;;;;;;;;;;;;;;;;;2588000;23;19907;-86
2022/05/25 06:46:55;;;;;;;;;;;;;;;;;;2587805;23;19939;-84
2022/05/25 06:47:56;;;;;;;;;;;;;;;;;;2587806;23;19995;-85
2022/05/25 06:48:59;;;;;;;;;;;;;;;;;;2583804;23;19965;-84
2022/05/25 06:50:00;;;;;;;;;;;;;;;;;;2587869;23;19907;-84
2022/05/25 06:51:13;;;;;;;;;;;;;;;;;;2587734;23;19903;-83
2022/05/25 06:52:16;;;;;;;;;;;;;;;;;;2587816;23;19903;-87
2022/05/25 06:53:17;;;;;;;;;;;;;;;;;;2587866;23;19913;-85
2022/05/25 06:54:18;;;;;;;;;;;;;;;;;;2583999;23;20322;-88
2022/05/25 06:55:19;;;;;;;;;;;;;;;;;;2587771;23;19919;-91
2022/05/25 06:56:20;;;;;;;;;;;;;;;;;;2587801;23;19910;-86
2022/05/25 06:57:20;;;;;;;;;;;;;;;;;;2583217;23;19914;-91
2022/05/25 06:58:20;;;;;;;;;;;;;;;;;;2587198;23;19914;-88
2022/05/25 06:59:21;;;;;;;;;;;;;;;;;;2587877;23;19903;-96
2022/05/25 07:00:21;;;;;;;;;;;;;;;;;;2582944;23;20396;-85
2022/05/25 07:01:22;;;;;;;;;;;;;;;;;;2583262;23;19939;-85
2022/05/25 07:02:23;;;;;;;;;;;;;;;;;;2587716;23;20515;-86
2022/05/25 07:03:31;;;;;;;;;;;;;;;;;;2587739;23;19911;-85
2022/05/25 07:04:34;;;;;;;;;;;;;;;;;;2570421;23;19937;-86
2022/05/25 07:05:39;;;;;;;;;;;;;;;;;;2575128;23;19942;-84
2022/05/25 07:06:49;;;;;;;;;;;;;;;;;;2582914;23;20002;-85
2022/05/25 07:07:51;;;;;;;;;;;;;;;;;;2587122;23;20000;-87
2022/05/25 07:08:54;;;;;;;;;;;;;;;;;;2587733;23;20226;-85
2022/05/25 07:09:57;;;;;;;;;;;;;;;;;;2587586;23;19931;-85
2022/05/25 07:11:00;;;;;;;;;;;;;;;;;;2587626;23;19911;-86
2022/05/25 07:12:00;;;;;;;;;;;;;;;;;;2582974;23;19915;-85
2022/05/25 07:13:03;;;;;;;;;;;;;;;;;;2582826;23;19997;-88
2022/05/25 07:14:14;;;;;;;;;;;;;;;;;;2587088;23;19938;-89
2022/05/25 07:15:14;;;;;;;;;;;;;;;;;;2587708;23;19904;-85
2022/05/25 07:16:37;;;;;;;;;;;;;;;;;;2587631;23;19944;-90
2022/05/25 07:17:48;;;;;;;;;;;;;;;;;;2587733;23;19903;-90
2022/05/25 07:18:48;;;;;;;;;;;;;;;;;;2587717;23;20558;-91
2022/05/25 07:19:51;;;;;;;;;;;;;;;;;;2587533;23;19972;-92